LiveATC.Net - Listen to live air traffic control over the Internet!

Find LiveATC Audio Streams


Airport/ARTCC Code

Frequency Search
(e.g., 124.400, 128.75)
Site-wide search
 


Browse LiveATC Feeds
LiveATC Coverage Map
Top 50 LiveATC Feeds
Bad Weather Areas

LiveATC FAQ
Offer a LiveATC Feed
Contact LiveATC.net
Press Inquiries

LiveATC on iPhone
LiveATC on Android

Windows Phone
Windows 8/10

LiveATC Mobile
(Mobile browser)

ATC Audio Archives
Interesting Recordings

LiveATC Forums

Home Page
About LiveATC.net
Make a Donation
LiveATC Store

Terms of Use
Privacy Policy

Canadian Air Freqs

AIRMETs/SIGMETs

FAA Airport Status
Nat'l Airspace Status
Arrival Demand Charts


Server Software By:
Icecast.org
Liquidsoap


Current Potentially Bad Weather Airports
(updated every 30 minutes - sorted alphabetically by ICAO code)



This page lists LiveATC.net airport areas that may be interesting to listen to because of challenging flying (weather) conditions. Challenging weather conditions include low ceilings, limited visibility, high or gusty winds, or thunderstorms.

Updated: Wed Apr 26 11:40:01 UTC 2017
Click on airport name to go to that airport area's feeds.

CYAM Tower Sault Ste. Marie Airport (Sault Ste. Marie, CA-ON)
WX MAP UNAVAILABLENearest METAR:
CYAM 261100Z 10011G20KT 2SM -RA BR OVC007 10/09 A2968 RMK SC8 SLP056
CYHZ Del/Gnd/Twr/App Halifax International Airport (Halifax, CA-NS)
WX MAP UNAVAILABLENearest METAR:
CYHZ 261100Z 14014G21KT 4SM BR OVC003 07/07 A3032 RMK ST8 SLP273
CYMX Ground/Radio Montreal-Mirabel International Airport (Montreal, CA-QC)
cymxNearest METAR:
CYMX 261100Z 06004KT 020V090 1SM R11/P6000FT/U -RA BR OVC001 08/08 A2995 RMK SF8 VIS VRB 3/4-1 1/4 SLP146
CYPQ UNICOM/Guard Peterborough Airport (Peterborough, CA-ON)
cypqNearest METAR:
CYPQ 261128Z AUTO 07004KT 2 1/4SM BR OVC007 10/10 A2983 RMK SLP108
CYQB Tower Quebec Jean Lesage International Airport (Quebec, CA-QC)
cyqbNearest METAR:
CYQB 261100Z 07006KT 040V120 3/4SM R06/P6000FT/D -DZ BR OVC003 05/04 A3004 RMK ST8 SLP177
CYQI/CZQM CTAF/FIC/Center Yarmouth Airport (Yarmouth, CA-NS)
WX MAP UNAVAILABLENearest METAR:
CYQI 261119Z 11012G17KT 2 1/2SM RA BR OVC003 10/10 A3016 RMK SF8 SLP215
CYQT Ground/Tower Thunder Bay Airport (Thunder Bay, CA-ON)
cyqtNearest METAR:
CYQT 261100Z 02008KT 6SM -FZRA -SN OVC018 M03/M05 A2980 RMK SC8 SLP104
CYRQ/CSR3 CTAF/UNICOM Victoriaville Airport (Trois-Rivieres, CA-QC)
WX MAP UNAVAILABLENearest METAR:
CYRQ 261100Z AUTO 05010KT 9SM OVC003 06/06 A2999 RMK SLP158
CYSB Gnd/Twr/Center Sudbury Airport (Sudbury, CA-ON)
WX MAP UNAVAILABLENearest METAR:
CYSB 261100Z 10006KT 1/4SM R22/1200FT/N FG VV001 09/08 A2980 RMK FG8 SLP101
CYVO Gnd/RDO/Center Val-D'Or Airport (Val-D'Or, CA-QC)
WX MAP UNAVAILABLENearest METAR:
CYVO 261100Z 12003KT 2 1/2SM -DZ BR OVC012 06/06 A2988 RMK ST8 SLP131
CYXE Terminal (App/Dep) John G. Diefenbaker International Airport (Saskatoon, CA-SK)
WX MAP UNAVAILABLENearest METAR:
CYXE 261124Z 11011KT 3SM -SN BR FEW008 BKN030 OVC055 M02/M03 A2999 RMK SF2SC4SC2 SLP182
EPKK Gnd/Tower/App John Paul II Balice International Airport (Krakow, Poland)
WX MAP UNAVAILABLENearest METAR:
EPKK 261100Z 04010KT 9999 -RA SCT007 OVC008 06/05 Q1010
KADS Tower Addison Airport (Dallas, US-TX)
kadsNearest METAR:
KADS 261125Z AUTO 19009G19KT 13SM TSRA SCT016 SCT031 BKN045 23/20 A2947 RMK LGT VCT AND DST ALL QDS
KAFW Tower/Heli/App Fort Worth Alliance Airport (Fort Worth, US-TX)
kafwNearest METAR:
KAFW 261119Z 19005KT 10SM TS FEW020 BKN042CB BKN110 22/21 A2946 RMK AO2 LTG DSNT E-S TSB15 OCNL LTGICCG OHD-SE TS OHD-SE MOV NE T02220206
KALO Gnd/Twr/App Waterloo Regional Airport (Waterloo, US-IA)
kaloNearest METAR:
KALO 261054Z 26011KT 10SM OVC006 10/09 A2941 RMK AO2 SLP956 T01000089
KAPC Ground/Tower Napa County Airport (Napa, US-CA)
kapcNearest METAR:
KAPC 261054Z AUTO 27007KT 10SM OVC008 14/12 A3003 RMK AO2 SLP161 T01440122
KAPN App/Dep/ZMP Alpena County Regional Airport (Alpena, US-MI)
kapnNearest METAR:
KAPN 261054Z AUTO 10006KT 1/4SM FG VV002 07/07 A2969 RMK AO2 SLP056 T00720072
KASG Gnd/Twr/App Springdale Municipal Airport (Springdale, US-AR)
kasgNearest METAR:
KASG 261048Z 34005KT 3SM +RA BR SCT005 BKN040 OVC070 15/15 A2951 RMK FRQ LTGICCG TS OHD MOV E
KASH Gnd/Twr/Misc Boire Field Airport (Nashua, US-NH)
kashNearest METAR:
KASH 261056Z 35004KT 2SM -RA BR OVC005 08/08 A2994 RMK AO2 SLP151 P0004 T00830083
KAUG Del/CTAF Augusta State Airport (Augusta, US-ME)
kaugNearest METAR:
KAUG 261116Z AUTO 02005KT 1 1/2SM BR OVC003 07/06 A3007 RMK AO2 RAE1055 P0000 T00670056
KAVL Gnd/Twr/App Asheville Regional Airport (Asheville, US-NC)
kavlNearest METAR:
KAVL 261102Z 00000KT M1/4SM FG VV001 10/09 A2982 RMK AO2 TWR VIS 1/2 T01000089 RVRNO
KBAF Ground/Tower Barnes Municipal Airport (Westfield/Springfield, US-MA)
kbafNearest METAR:
KBAF 261122Z 01010KT 3SM -RA BR OVC006 09/09 A2988 RMK AO2 P0000 T00940094
KBDL Tower Bradley International Airport (Windsor Locks, US-CT)
kbdlNearest METAR:
KBDL 261051Z 36012KT 1 1/4SM -RA BR BKN005 OVC012 09/09 A2986 RMK AO2 SFC VIS 2 SLP113 VIS 1 1/2V2 1/2 P0005 T00940089
Boston App (North Satellite) Laurence G Hanscom Field Airport (Bedford, US-MA)
kbedNearest METAR:
KBED 261127Z 04008KT 2SM BR OVC005 09/08 A2990 RMK AO2 RAE24 P0001 T00940078
KBGR Del/Gnd/Twr Bangor International Airport (Bangor, US-ME)
kbgrNearest METAR:
KBGR 261115Z 13008KT 2SM -DZ BR OVC007 09/09 A3008 RMK AO2 DZB1054 P0000 T00940089
KNEL/KWRI/ZNY Lakehurst Maxfield Field Joint Base McGuire (Lakehurst, US-NJ)
kwriNearest METAR:
KWRI 261103Z 02010KT 10SM OVC004 13/12 A2969 RMK AO2A TWR 2 1/2 SLP054 $
KNEL/KWRI/ZNY Lakehurst Maxfield Field Joint Base McGuire (Lakehurst, US-NJ)
knelNearest METAR:
KNEL 261128Z AUTO 04004KT 2SM BR OVC004 A2971 RMK AO2 $
KBLM/N12/3N6/KMJX Lakewood Airport (Lakewood, US-NJ)
kmjxNearest METAR:
KMJX 261056Z AUTO 03009KT 4SM BR OVC004 13/13 A2972 RMK AO2 SLP069 T01280128
KBLM/N12/3N6/KMJX Lakewood Airport (Lakewood, US-NJ)
kblmNearest METAR:
KBLM 261056Z AUTO 02010G16KT 8SM OVC003 12/12 A2973 RMK AO2 RAE36 SLP072 P0001 T01220117
KBMI Gnd/Twr Central Illinois Regional Airport at Bloomington-Normal (Bloomington/Normal, US-IL)
kbmiNearest METAR:
KBMI 261123Z 17015KT 10SM -RA OVC043 17/13 A2950 RMK AO2 LTG DSNT SW AND W TSB22E23RAB12 P0001
KBNW CTAF Boone Municipal Airport (Boone, US-IA)
kbnwNearest METAR:
KBNW 261115Z AUTO 31018G26KT 9SM OVC006 06/06 A2947 RMK AO2
KBOK CTAF Brookings Airport (Brookings, US-OR)
kbokNearest METAR:
KBOK 261056Z AUTO 16006KT 1/4SM -RA FG OVC003 11/11 A2998 RMK AO2 SLP168 P0002 T01110111
KBOS App (North/Rockport) General Edward Lawrence Logan International Airport (Boston, US-MA)
kbosNearest METAR:
KBOS 261054Z 05013KT 1/4SM R04R/P6000FT BR OVC002 10/10 A2991 RMK AO2 SFC VIS 3/4 RAB0956E17 SLP126 P0000 T01000100
KBVY Tower Beverly Municipal Airport (Beverly, US-MA)
kbvyNearest METAR:
KBVY 261053Z 03008KT 6SM -RA BR OVC004 09/09 A2992 RMK AO2 SLP129 P0004 T00940089 $
KCAK Del/Gnd/Twr/App Akron-Canton Regional Airport (Akron, US-OH)
kcakNearest METAR:
KCAK 261051Z 18005KT 4SM BR OVC004 12/11 A2977 RMK AO2 SLP078 T01220106 $
KCID Del/Gnd/Twr/App The Eastern Iowa Airport (Cedar Rapids, US-IA)
kcidNearest METAR:
KCID 261058Z 28008KT 4SM BR OVC004 12/12 A2938 RMK AO2 T01170117
KCOU CTAF/Gnd/App Columbia Regional Airport (Columbia, US-MO)
kcouNearest METAR:
KCOU 261054Z AUTO 19006KT 10SM OVC004 15/15 A2943 RMK AO2 SLP960 T01500150
KCRW Tower/Approach Yeager Airport (Charleston, US-WV)
kcrwNearest METAR:
KCRW 261054Z 00000KT 1/4SM FG SCT000 12/11 A2977 RMK AO2 SLP075 FG SCT000 T01170111 RVRNO
KDAL App/Dep North Dallas Love Field Airport (Dallas, US-TX)
kdalNearest METAR:
KDAL 261122Z 21015G20KT 2SM +TSRA BKN020CB BKN055 OVC110 23/21 A2945 RMK AO2 RAB14 TSB08 CONS LTGICCG TS OHD MOV NE P0002 T02330206
KDFW Tower (East) Dallas/Fort Worth International Airport (Dallas, US-TX)
kdfwNearest METAR:
KDFW 261119Z 21007KT 5SM -TSRA BR SCT015 BKN029CB BKN047 23/22 A2944 RMK AO2 LTG DSNT ALQDS RAB18 TSE02B08 CONS LTGICCCCG E-OHD-W TS E-OHD-W MOV NE P0000 T02330217
KDLH Gnd/Twr/App Duluth International Airport (Duluth, US-MN)
kdlhNearest METAR:
KDLH 261103Z 07011G19KT 5SM -FZRASN OVC008 M01/M02 A2962 RMK AO2 P0000 I1000 T10061017
KDSM Gnd/Twr/App Des Moines International Airport (Des Moines, US-IA)
kdsmNearest METAR:
KDSM 261054Z 31012KT 10SM OVC009 07/05 A2950 RMK AO2 SLP988 T00720050
KDTO Gnd/Twr Denton Municipal Airport (Denton, US-TX)
kdtoNearest METAR:
KDTO 261127Z 20012KT 10SM VCTS SCT023 OVC031 22/21 A2946 RMK AO2 LTG DSNT SE-SW T02170206
KDXR Ground/Tower Danbury Municipal Airport (Danbury, US-CT)
kdxrNearest METAR:
KDXR 261053Z AUTO 05009KT 8SM OVC007 10/10 A2981 RMK AO2 RAE29 CIG 005V009 SLP096 P0004 T01000100
KEAU Tower Chippewa Valley Regional Airport (Eau Claire, US-WI)
keauNearest METAR:
KEAU 261056Z 03011KT 10SM OVC006 06/05 A2942 RMK AO2 RAE35 SLP964 P0001 T00610050
NY Departure (Liberty South) Newark Liberty International Airport (Newark, US-NJ)
kewrNearest METAR:
KEWR 261051Z 01013KT 2 1/2SM -RA BR OVC005 12/12 A2975 RMK AO2 SLP075 P0000 T01170117 $
KFAR Approach/Departure Hector International Airport (Fargo, US-ND)
kfarNearest METAR:
KFAR 261125Z 36020KT 3SM -SN BR BKN009 OVC017 M02/M03 A2974 RMK AO2 P0000 T10171028
KFDK Del/Gnd/Twr/CTAF #1 Frederick Municipal Airport (Frederick, US-MD)
kfdkNearest METAR:
KFDK 261053Z 00000KT 5SM BR OVC007 A2977
KFIT CTAF/FSS RCO Fitchburg Municipal Airport (Fitchburg, US-MA)
kfitNearest METAR:
KFIT 261103Z AUTO 35006KT 1 3/4SM -RA BR OVC006 09/08 A2993 RMK AO2 P0001 T00890078
KFKA CTAF Fillmore County Airport (Preston, US-MN)
kfkaNearest METAR:
KFKA 261114Z AUTO 31003KT 4SM BR OVC006 11/10 A2938 RMK AO2 T01110103
KFSD Twr/App/Dep/ZMP Joe Foss Field Airport (Sioux Falls, US-SD)
kfsdNearest METAR:
KFSD 261056Z 33012KT 10SM -DZ OVC008 02/01 A2964 RMK AO2 DZB53 SLP049 P0000 T00170011
KFTW Clearance/Gnd/Twr Fort Worth Meacham International Airport (Fort Worth, US-TX)
kftwNearest METAR:
KFTW 261128Z 18008KT 10SM VCTS -RA SCT018 BKN029 BKN048 23/22 A2945 RMK AO2 LTG DSNT ALQDS RAB07 TSB00E23 P0000 T02330217
KFWS Ground/Tower Fort Worth Spinks Airport (Fort Worth, US-TX)
kfwsNearest METAR:
KFWS 261115Z AUTO 16006KT 10SM -RA SCT006 BKN041 OVC046 22/20 A2947 RMK AO2 LTG DSNT W THRU E T02200202
KFYV Gnd/Twr/App/ZME Drake Field Airport (Fayetteville, US-AR)
kfyvNearest METAR:
KFYV 261127Z 35006KT 1 3/4SM +TSRA BR SCT019 SCT024 OVC034 15/15 A2947 RMK AO2 LTG DSNT ALQDS RAB1059 TSB1059 P0019 T01500150
KGHG/KPVC CTAF Marshfield Municipal Airport - George Harlow Field (Marshfield, US-MA)
kghgNearest METAR:
KGHG 261115Z AUTO 14008KT 1 1/4SM BR OVC001 11/11 A2989 RMK AO2
KGHG/KPVC CTAF Marshfield Municipal Airport - George Harlow Field (Marshfield, US-MA)
kpvcNearest METAR:
KPVC 261115Z AUTO 13011KT 10SM OVC003 12/12 A2990 RMK AO2 RAE15 P0002
KGSP Approach Greenville Spartanburg International Airport (Greer, US-SC)
kgspNearest METAR:
KGSP 261053Z 00000KT 1/4SM FG VV002 15/14 A2977 RMK AO2 SLP072 T01500144
KGYI Ground/Tower North Texas Regional Airport/Perrin Field (Sherman/Denison, US-TX)
kgyiNearest METAR:
KGYI 261115Z AUTO 21006KT 10SM VCTS SCT019 BKN028 OVC033 22/20 A2945 RMK AO2 LTG DSNT W THRU NE T02200197
KHFD Ground/Tower Hartford-Brainard Airport (Hartford, US-CT)
khfdNearest METAR:
KHFD 261053Z 35009G15KT 1 1/4SM RA BR BKN005 OVC010 10/09 A2984 RMK AO2 SLP105 P0004 T01000094
KHRO CTAF/ZME/Misc Boone County Airport (Harrison, US-AR)
khroNearest METAR:
KHRO 261124Z AUTO 12005KT 10SM SCT004 OVC065 14/14 A2953 RMK AO2 LTG DSNT W-NE T01440144
KHUL/KPQI/ZBW01/15 Houlton International Airport (Houlton, US-ME)
kpqiNearest METAR:
KPQI 261056Z AUTO 17006KT 10SM -RA OVC007 05/04 A3015 RMK AO2 SLP256 P0005 T00500039
KHWV CTAF Brookhaven Airport (Shirley, US-NY)
khwvNearest METAR:
KHWV 261128Z AUTO 02007KT 1SM RA BR OVC003 11/11 A2976 RMK AO2 P0009 T01110111 TSNO
KHYA/KFMH Twr/Cape App Barnstable Municipal Airport-Boardman/Polando Field (Hyannis, US-MA)
kfmhNearest METAR:
KFMH 260855Z 2SM BR OVC004 A2989 RMK AO2 PWINO FZRANO TSNO WEA / WIND E14020KT
KHYA/KFMH Twr/Cape App Barnstable Municipal Airport-Boardman/Polando Field (Hyannis, US-MA)
khyaNearest METAR:
KHYA 261056Z 11010G19KT 6SM BR OVC003 12/12 A2986 RMK AO2 RAE47 SLP112 P0003 T01170117
KIAD Del/Gnd Washington Dulles International Airport (Washington, US-DC)
kiadNearest METAR:
KIAD 261103Z 33007KT 1 3/4SM R01R/5500VP6000FT BR OVC005 13/13 A2975 RMK AO2 TWR VIS 2 T01330128
KJYO CTAF/Del/SFRA Leesburg Executive Airport (Leesburg, US-VA)
kjyoNearest METAR:
KJYO 261115Z AUTO 34005KT 1 1/4SM BR OVC006 13/13 A2977 RMK AO2
KISP (NY Approach) Long Island Mac Arthur Airport (Islip, US-NY)
kispNearest METAR:
KISP 261056Z 02011KT 1/4SM R06/4500V6000FT FG OVC002 11/11 A2974 RMK AO2 SFC VIS 1/2 RAE01B29E40 SLP071 P0000 T01060106 $
KIXD ASOS/ATIS New Century AirCenter Airport (Olathe, US-KS)
kixdNearest METAR:
KIXD 261053Z 32011KT 3SM BR OVC005 06/06 A2957 RMK AO2 CIG 004V010 SLP009 T00610056
KJLN Ground/Tower Joplin Regional Airport (Joplin, US-MO)
kjlnNearest METAR:
KJLN 261053Z 33009KT 4SM BR OVC004 12/12 A2953 RMK AO2 SLP991 T01220122
KLBB Gnd/Twr/App Lubbock Preston Smith International Airport (Lubbock, US-TX)
klbbNearest METAR:
KLBB 261053Z 26011KT 10SM FEW070 SCT130 BKN160 14/05 A2960 RMK AO2 SLP980 FRQ LTGIC DSNT NW CB DSNT NW MOV SE T01390050
KLCI Del/CTAF Laconia Municipal Airport (Laconia, US-NH)
klciNearest METAR:
KLCI 261056Z AUTO 06005KT 10SM -RA OVC006 07/06 A2999 RMK AO2 SLP178 P0001 T00670061
KLGA NY App/Dep LaGuardia Airport (New York, US-NY)
klgaNearest METAR:
KLGA 261123Z 05007KT 4SM -RA BR OVC006 13/12 A2975 RMK AO2 P0001 T01330117
KLOM CTAF Wings Field Airport (Philadelphia, US-PA)
klomNearest METAR:
KLOM 261115Z AUTO 05003KT 7SM OVC004 12/12 A2974 RMK AO1
KLWM Ground/Tower Lawrence Municipal Airport (Lawrence, US-MA)
klwmNearest METAR:
KLWM 261117Z 05010KT 2 1/2SM -RA BR OVC005 10/09 A2995 RMK AO2 P0000 T01000089
KMCI Del/Gnd/Twr/App Kansas City International Airport (Kansas City, US-MO)
kmciNearest METAR:
KMCI 261053Z 32013G17KT 8SM -RA BR OVC006 07/06 A2956 RMK AO2 RAB09 CIG 005V010 PRESRR SLP005 P0000 T00670056
KMHT Del/Gnd/Twr Manchester Airport (Manchester, US-NH)
kmhtNearest METAR:
KMHT 261053Z 03008KT 1SM R35/P6000FT BR OVC006 09/07 A2993 RMK AO2 TWR VIS 5 RAE34 SLP151 P0004 T00890067
KMLC CTAF/ZFW McAlester Regional Airport (McAlester, US-OK)
kmlcNearest METAR:
KMLC 261116Z AUTO VRB06KT 4SM +TSRA BR OVC007 17/16 A2947 RMK AO2 LTG DSNT ALQDS P0027 T01670156
KMMU ATIS Morristown Municipal Airport (Morristown, US-NJ)
kmmuNearest METAR:
KMMU 261046Z 06005KT 10SM OVC005 12/11 A2977
KMVY Del/Gnd/Twr Martha's Vineyard Airport (Vineyard Haven, US-MA)
kmvyNearest METAR:
KMVY 261053Z 11023G31KT 5SM -RA BR OVC004 13/12 A2984 RMK AO2 PK WND 11033/1015 SLP106 P0001 T01280122
KNTU Gnd/Twr/App/Radar Oceana Naval Air Station (Apollo Soucek Field) (Virginia Beach, US-VA)
kntuNearest METAR:
KNTU 261056Z 29007KT 10SM OVC006 15/14 A2971 RMK AO2 SLP064 T01500144
KORH Del/Gnd/Twr Worcester Regional Airport (Worcester, US-MA)
korhNearest METAR:
KORH 261054Z 02011KT 3/4SM R11/P6000FT -RA BR OVC002 07/06 A2988 RMK AO2 SFC VIS 1 1/2 SLP126 P0003 T00670056
KOTM Del/Twr/App/Center Ottumwa Regional Airport (Ottumwa, US-IA)
kotmNearest METAR:
KOTM 261053Z AUTO 29010KT 10SM OVC007 10/09 A2943 RMK AO2 SLP963 T01000089
KOWD Ground/Tower Norwood Municipal Airport (Norwood, US-MA)
kowdNearest METAR:
KOWD 261106Z 03005KT 3/4SM BR OVC002 11/10 A2988 RMK AO2 T01060100
KPHL App (N/S Arrival) Philadelphia International Airport (Philadelphia, US-PA)
kphlNearest METAR:
KPHL 261054Z 05011KT 7SM OVC005 14/13 A2971 RMK SLP061 T01390128
KPNE Gnd/Twr/App Northeast Philadelphia Airport (Philadelphia, US-PA)
kpneNearest METAR:
KPNE 261054Z 05012KT 10SM OVC005 14/13 A2973 RMK AO2 SLP065 T01390128
KPSM Gnd/Twr/App/GCA Portsmouth International Airport at Pease (Portsmouth, US-NH)
kpsmNearest METAR:
KPSM 261120Z 04005KT 1SM R34/P6000FT -DZ BR OVC003 09/08 A2996 RMK AO2A
KPVD Del/Gnd/Twr/App Theodore Francis Green State Airport (Providence, US-RI)
kpvdNearest METAR:
KPVD 261051Z 33003KT 3SM BR OVC004 13/13 A2984 RMK AO2 RAE30 SLP103 P0002 T01280128
KPWM Gnd/Twr/App #2 Portland International Jetport (Portland, US-ME)
kpwmNearest METAR:
KPWM 261051Z VRB06KT 1 1/4SM -RA BR OVC002 08/07 A3002 RMK AO2 SLP165 P0000 T00830072
KPYM CTAF Plymouth Municipal Airport (Plymouth, US-MA)
kpymNearest METAR:
KPYM 261052Z AUTO 11011KT 10SM OVC006 15/14 A2987 RMK AO2 CIG 005V009 SLP113 T01500139 TSNO
KRBD Gnd/Twr Dallas Executive Airport (Dallas, US-TX)
krbdNearest METAR:
KRBD 261122Z AUTO 28008KT 2 1/2SM TSRA BR SCT011 BKN027 OVC090 22/22 A2946 RMK AO2 LTG DSNT ALQDS TSB1059 P0034 T02220217
KRDG Gnd/Twr/App Reading Regional Airport/Carl A Spaatz Field (Reading, US-PA)
krdgNearest METAR:
KRDG 261054Z AUTO 07005KT 10SM OVC006 12/12 A2973 RMK AO2 SLP073 T01220122
KRIC Del/Gnd/Twr/App Richmond International Airport (Richmond, US-VA)
kricNearest METAR:
KRIC 261123Z 32005KT 1 1/2SM -DZ BR SCT005 BKN014 OVC030 14/14 A2975 RMK AO2 P0000 T01440144
KRNH CTAF/Clearance New Richmond Regional Airport (New Richmond, US-WI)
krnhNearest METAR:
KRNH 261115Z AUTO 02012G15KT 4SM -RA OVC009 02/02 A2948 RMK AO2 P0003 T00210017
KRST Gnd/Twr/App Rochester International Airport (Rochester, US-MN)
krstNearest METAR:
KRST 261054Z 02006KT 4SM BR OVC003 11/11 A2938 RMK AO2 SLP952 T01110111
KRVS Ground/Tower Richard Lloyd Jones Jr Airport (Tulsa, US-OK)
krvsNearest METAR:
KRVS 261053Z 35007G16KT 310V020 9SM OVC011 12/09 A2954 RMK AO2 LTG DSNT E SLP007 T01170094
KSGF Ground/Tower Springfield-Branson National Airport (Springfield, US-MO)
ksgfNearest METAR:
KSGF 261052Z 16010KT 10SM OVC007 14/14 A2949 RMK AO2 SLP977 T01440139
KSUX Twr/App/ZMP Sioux Gateway Airport/Col. Bud Day Field (Sioux City, US-IA)
ksuxNearest METAR:
KSUX 261052Z 32020G29KT 10SM OVC009 02/01 A2963 RMK AO2 PK WND 31030/1001 SLP040 T00170006
KSWF Ground/Tower Stewart International Airport (Newburgh, US-NY)
kswfNearest METAR:
KSWF 261045Z 02007KT 2SM -RA BR SCT004 OVC008 11/11 A2983
KTAN CTAF Taunton Municipal Airport (Taunton, US-MA)
ktanNearest METAR:
KTAN 261052Z AUTO 11007KT 9SM -RA OVC005 14/13 A2984 RMK AO2 SLP106 P0001 T01440133
KTEB Tower Teterboro Airport (Teterboro, US-NJ)
ktebNearest METAR:
KTEB 261115Z 02007KT 1 1/2SM BR OVC005 12/12 A2975 RMK AO2 T01220117
KTRI Gnd/Twr/App Tri-Cities Regional Airport (Bristol/Johnson/Kingsport, US-TN)
ktriNearest METAR:
KTRI 261053Z 00000KT 1/16SM FG VV002 09/09 A2981 RMK AO2 SLP078 T00940089
KTTN Ground/Tower Trenton Mercer Airport (Trenton, US-NJ)
kttnNearest METAR:
KTTN 261053Z 05010KT 10SM OVC004 13/13 A2972 RMK AO2 SLP057 T01280128
KTUL Del/Gnd/Twr/App Tulsa International Airport (Tulsa, US-OK)
ktulNearest METAR:
KTUL 261053Z 34015G22KT 9SM OVC011 11/10 A2953 RMK AO2 LTG DSNT SE SLP992 T01110100 $
PASC CTAF/Unicom/AFIS/App Deadhorse Airport (Deadhorse, US-AK)
WX MAP UNAVAILABLENearest METAR:
PASC 261100Z 06008KT 9SM -SN OVC013 M13/M16 A3005 RMK AO2 P0000 T11331156
SBMG Tower Regional de Maringa Silvio Name Junior Airport (Maringa, Brazil)
WX MAP UNAVAILABLENearest METAR:
SBMG 261000Z 20014G24KT 1000 TSRA FEW004 SCT010 BKN040 FEW050CB 19/18 Q1010 RERA
SBPA Gnd/Twr/App Salgado Filho International Airport (Porto Alegre, Brazil)
WX MAP UNAVAILABLENearest METAR:
SBPA 261100Z 28020G33KT 9999 BKN017 BKN040 19/17 Q1003